Cheste, Spain
Current Conditions -  °F | °C
As of 12:00 AM on Friday 28 Nov 2014 (Local Time) from LEVC Reporting Station
Broken Clouds Broken Clouds  
Wind Chill: 59°   Ceiling: 6000
Heat Index: 59°   Visibility: 4mi
Dew Point: 57°   Wind: 1mph
Humidity: 94%   Direction: NA
Pressure: 29.41"   Gusts: NA
Location:  39.48°N, 0.68°W
Report Text: LEVC 272300Z VRB01KT 7000 SCT020 BKN060 15/14 Q0996 NOSIG
Loading
Personal Weather Stations






























Interactive Weather Map New forecast layout! Learn more

10-Day Weather Forecast

Advertisements
Track Severe Weather on mobile